createdAt,value
2022-08-30T00:02:26.890Z,17.40
2022-08-30T00:05:18.257Z,17.30
2022-08-30T00:08:07.913Z,17.30
2022-08-30T00:10:57.373Z,17.30
2022-08-30T00:13:48.975Z,17.30
2022-08-30T00:16:38.363Z,17.20
2022-08-30T00:19:29.214Z,17.20
2022-08-30T00:22:18.709Z,17.20
2022-08-30T00:25:09.626Z,17.20
2022-08-30T00:27:59.089Z,17.10
2022-08-30T00:30:49.246Z,17.10
2022-08-30T00:33:40.404Z,17.10
2022-08-30T00:36:31.108Z,17.10
2022-08-30T00:39:20.491Z,17.00
2022-08-30T00:42:11.197Z,17.00
2022-08-30T00:45:01.493Z,16.90
2022-08-30T00:47:51.485Z,17.00
2022-08-30T00:51:00.138Z,16.90
2022-08-30T00:53:57.804Z,16.90
2022-08-30T00:56:48.341Z,16.90
2022-08-30T00:59:38.366Z,16.90
2022-08-30T01:02:33.401Z,16.90
2022-08-30T01:05:24.075Z,16.80
2022-08-30T01:08:15.642Z,16.80
2022-08-30T01:11:07.057Z,16.80
2022-08-30T01:13:57.984Z,16.80
2022-08-30T01:16:47.656Z,16.70
2022-08-30T01:19:43.426Z,16.70
2022-08-30T01:22:41.932Z,16.70
2022-08-30T01:25:38.245Z,16.70
2022-08-30T01:28:30.390Z,16.70
2022-08-30T01:31:19.934Z,16.70
2022-08-30T01:34:10.410Z,16.70
2022-08-30T01:36:59.839Z,16.70
2022-08-30T01:39:49.470Z,16.60
2022-08-30T01:42:40.302Z,16.60
2022-08-30T01:45:29.923Z,16.60
2022-08-30T01:48:19.391Z,16.60
2022-08-30T01:51:12.057Z,16.60
2022-08-30T01:54:02.028Z,16.60
2022-08-30T01:56:51.569Z,16.60
2022-08-30T01:59:47.635Z,16.60
2022-08-30T02:02:37.995Z,16.60
2022-08-30T02:05:27.695Z,16.60
2022-08-30T02:08:17.198Z,16.60
2022-08-30T02:11:07.068Z,16.50
2022-08-30T02:13:56.512Z,16.50
2022-08-30T02:16:48.509Z,16.50
2022-08-30T02:19:38.661Z,16.50
2022-08-30T02:22:28.162Z,16.50
2022-08-30T02:25:20.562Z,16.50
2022-08-30T02:28:10.851Z,16.50
2022-08-30T02:31:04.685Z,16.50
2022-08-30T02:33:57.170Z,16.50
2022-08-30T02:36:47.481Z,16.40
2022-08-30T02:39:37.042Z,16.40
2022-08-30T02:42:26.386Z,16.40
2022-08-30T02:45:16.650Z,16.40
2022-08-30T02:48:08.721Z,16.40
2022-08-30T02:51:10.555Z,16.40
2022-08-30T02:54:00.757Z,16.40
2022-08-30T02:56:51.037Z,16.40
2022-08-30T02:59:44.170Z,16.30
2022-08-30T03:02:33.558Z,16.30
2022-08-30T03:05:23.165Z,16.30
2022-08-30T03:08:14.069Z,16.30
2022-08-30T03:11:04.602Z,16.30
2022-08-30T03:13:54.014Z,16.30
2022-08-30T03:16:43.493Z,16.20
2022-08-30T03:19:32.986Z,16.20
2022-08-30T03:22:22.852Z,16.20
2022-08-30T03:25:13.939Z,16.20
2022-08-30T03:28:03.644Z,16.20
2022-08-30T03:30:53.010Z,16.20
2022-08-30T03:33:42.465Z,16.20
2022-08-30T03:36:31.866Z,16.20
2022-08-30T03:39:23.155Z,16.20
2022-08-30T03:42:14.190Z,16.10
2022-08-30T03:45:07.455Z,16.10
2022-08-30T03:47:56.873Z,16.10
2022-08-30T03:50:46.201Z,16.00
2022-08-30T03:53:35.657Z,16.00
2022-08-30T03:56:25.169Z,16.00
2022-08-30T03:59:16.470Z,16.00
2022-08-30T04:02:06.148Z,15.90
2022-08-30T04:04:55.553Z,15.90
2022-08-30T04:07:45.880Z,15.90
2022-08-30T04:10:35.390Z,15.90
2022-08-30T04:13:25.787Z,15.90
2022-08-30T04:16:17.295Z,15.80
2022-08-30T04:19:06.742Z,15.80
2022-08-30T04:21:57.359Z,15.80
2022-08-30T04:24:46.722Z,15.80
2022-08-30T04:27:36.238Z,15.80
2022-08-30T04:30:25.686Z,15.80
2022-08-30T04:33:17.729Z,15.90
2022-08-30T04:36:09.345Z,15.90
2022-08-30T04:38:58.685Z,15.90
2022-08-30T04:41:48.478Z,15.90
2022-08-30T04:44:37.890Z,15.90
2022-08-30T04:47:27.559Z,16.00
2022-08-30T04:50:21.539Z,16.00
2022-08-30T04:53:10.913Z,16.00
2022-08-30T04:56:00.341Z,16.00
2022-08-30T04:58:52.392Z,16.00
2022-08-30T05:01:45.631Z,16.10
2022-08-30T05:04:35.317Z,16.10
2022-08-30T05:07:26.146Z,16.20
2022-08-30T05:10:15.603Z,16.30
2022-08-30T05:13:05.119Z,16.30
2022-08-30T05:15:54.563Z,16.40
2022-08-30T05:18:44.549Z,16.50
2022-08-30T05:21:33.962Z,16.50
2022-08-30T05:24:24.788Z,16.60
2022-08-30T05:27:14.200Z,16.70
2022-08-30T05:30:03.826Z,16.80
2022-08-30T05:32:53.789Z,17.00
2022-08-30T05:35:43.337Z,17.30
2022-08-30T05:38:32.700Z,17.70
2022-08-30T05:41:26.410Z,18.30
2022-08-30T05:44:16.560Z,19.00
2022-08-30T05:47:06.501Z,19.70
2022-08-30T05:49:56.122Z,20.50
2022-08-30T05:52:46.168Z,21.30
2022-08-30T05:55:35.653Z,22.10
2022-08-30T05:58:26.357Z,22.90
2022-08-30T06:01:25.222Z,23.60
2022-08-30T06:04:15.450Z,24.30
2022-08-30T06:07:05.652Z,24.90
2022-08-30T06:09:55.017Z,25.50
2022-08-30T06:12:44.391Z,26.00
2022-08-30T06:15:35.148Z,26.40
2022-08-30T06:18:28.738Z,26.80
2022-08-30T06:21:18.965Z,27.20
2022-08-30T06:24:11.633Z,27.60
2022-08-30T06:27:01.007Z,28.00
2022-08-30T06:29:52.952Z,28.40
2022-08-30T06:32:43.772Z,28.70
2022-08-30T06:35:38.229Z,29.10
2022-08-30T06:38:36.528Z,29.40
2022-08-30T06:41:30.298Z,29.90
2022-08-30T06:44:19.653Z,30.30
2022-08-30T06:47:09.073Z,30.70
2022-08-30T06:50:00.966Z,31.10
2022-08-30T06:52:50.434Z,31.40
2022-08-30T06:55:39.834Z,31.80
2022-08-30T06:58:30.544Z,32.10
2022-08-30T07:01:23.132Z,32.40
2022-08-30T07:04:12.505Z,32.70
2022-08-30T07:07:03.273Z,32.90
2022-08-30T07:09:53.897Z,33.30
2022-08-30T07:12:43.400Z,33.60
2022-08-30T07:15:33.952Z,33.90
2022-08-30T07:18:45.535Z,34.30
2022-08-30T07:21:38.043Z,34.60
2022-08-30T07:24:28.735Z,35.10
2022-08-30T07:27:18.205Z,35.70
2022-08-30T07:30:09.733Z,36.10
2022-08-30T07:32:59.999Z,36.60
2022-08-30T07:35:49.362Z,36.80
2022-08-30T07:38:39.142Z,37.10
2022-08-30T07:41:34.119Z,37.20
2022-08-30T07:44:25.089Z,37.30
2022-08-30T07:47:14.637Z,37.30
2022-08-30T07:50:05.041Z,37.40
2022-08-30T07:52:54.639Z,37.50
2022-08-30T07:55:44.168Z,37.60
2022-08-30T07:58:35.181Z,37.70
2022-08-30T08:01:25.567Z,37.80
2022-08-30T08:04:15.110Z,37.90
2022-08-30T08:07:04.984Z,37.90
2022-08-30T08:09:54.408Z,38.20
2022-08-30T08:12:43.822Z,38.50
2022-08-30T08:15:35.177Z,38.80
2022-08-30T08:18:24.639Z,39.10
2022-08-30T08:21:14.063Z,39.10
2022-08-30T08:24:04.341Z,39.10
2022-08-30T08:26:53.888Z,39.00
2022-08-30T08:29:43.217Z,38.90
2022-08-30T08:32:34.020Z,38.90
2022-08-30T08:35:23.524Z,38.90
2022-08-30T08:38:13.728Z,39.10
2022-08-30T08:41:10.525Z,39.30
2022-08-30T08:44:00.594Z,39.70
2022-08-30T08:46:58.113Z,40.20
2022-08-30T08:49:54.190Z,40.50
2022-08-30T08:53:25.044Z,40.50
2022-08-30T08:56:23.946Z,40.30
2022-08-30T08:59:16.679Z,39.60
2022-08-30T09:02:27.410Z,39.00
2022-08-30T09:05:22.858Z,38.30
2022-08-30T09:08:16.192Z,37.80
2022-08-30T09:11:13.402Z,37.40
2022-08-30T09:14:03.170Z,37.20
2022-08-30T09:17:02.787Z,37.10
2022-08-30T09:20:01.050Z,36.90
2022-08-30T09:22:51.846Z,36.60
2022-08-30T09:25:54.419Z,36.20
2022-08-30T09:28:49.785Z,35.80
2022-08-30T09:32:01.357Z,35.20
2022-08-30T09:35:00.684Z,34.80
2022-08-30T09:37:57.803Z,34.30
2022-08-30T09:40:51.175Z,33.90
2022-08-30T09:43:40.622Z,33.50
2022-08-30T09:46:30.623Z,33.20
2022-08-30T09:49:35.869Z,33.00
2022-08-30T09:52:42.894Z,32.80
2022-08-30T09:56:00.333Z,32.50
2022-08-30T09:59:04.583Z,32.30
2022-08-30T10:02:02.811Z,32.00
2022-08-30T10:05:04.085Z,31.80
2022-08-30T10:08:04.305Z,31.60
2022-08-30T10:10:59.999Z,31.40
2022-08-30T10:14:48.876Z,31.20
2022-08-30T10:17:49.944Z,31.00
2022-08-30T10:20:50.216Z,30.90
2022-08-30T10:23:47.102Z,31.00
2022-08-30T10:26:43.674Z,31.50
2022-08-30T10:29:43.389Z,32.10
2022-08-30T10:32:40.597Z,32.80
2022-08-30T10:35:38.589Z,33.60
2022-08-30T10:38:33.275Z,34.20
2022-08-30T10:41:35.778Z,34.60
2022-08-30T10:44:32.662Z,34.80
2022-08-30T10:47:32.095Z,34.80
2022-08-30T10:50:28.519Z,34.70
2022-08-30T10:53:21.433Z,34.70
2022-08-30T10:56:16.169Z,34.60
2022-08-30T10:59:07.397Z,34.60
2022-08-30T11:02:24.850Z,34.60
2022-08-30T11:05:48.599Z,34.80
2022-08-30T11:09:16.508Z,35.10
2022-08-30T11:12:38.001Z,35.40
2022-08-30T11:15:31.558Z,35.70
2022-08-30T11:18:23.466Z,36.00
2022-08-30T11:21:25.178Z,36.30
2022-08-30T11:24:17.981Z,36.40
2022-08-30T11:27:07.451Z,36.30
2022-08-30T11:29:59.782Z,36.10
2022-08-30T11:33:09.382Z,35.70
2022-08-30T11:36:00.484Z,35.30
2022-08-30T11:39:04.177Z,34.80
2022-08-30T11:42:15.256Z,34.30
2022-08-30T11:45:55.612Z,33.80
2022-08-30T11:48:54.601Z,33.40
2022-08-30T11:52:33.019Z,32.90
2022-08-30T11:55:50.377Z,32.50
2022-08-30T11:58:51.444Z,32.20
2022-08-30T12:01:49.640Z,31.80
2022-08-30T12:04:47.101Z,31.50
2022-08-30T12:08:01.800Z,31.20
2022-08-30T12:10:57.383Z,30.90
2022-08-30T12:13:55.621Z,30.80
2022-08-30T12:17:02.775Z,30.60
2022-08-30T12:19:52.897Z,30.50
2022-08-30T12:22:42.565Z,30.50
2022-08-30T12:25:35.732Z,30.30
2022-08-30T12:28:27.174Z,30.30
2022-08-30T12:31:21.653Z,30.20
2022-08-30T12:34:21.870Z,30.10
2022-08-30T12:37:24.628Z,30.00
2022-08-30T12:40:20.255Z,30.00
2022-08-30T12:43:38.766Z,29.90
2022-08-30T12:46:32.232Z,29.70
2022-08-30T12:49:28.597Z,29.60
2022-08-30T12:52:23.407Z,29.50
2022-08-30T12:55:19.436Z,29.40
2022-08-30T12:58:12.492Z,29.30
2022-08-30T13:01:27.442Z,29.30
2022-08-30T13:04:23.988Z,29.20
2022-08-30T13:07:13.372Z,29.10
2022-08-30T13:10:20.014Z,29.00
2022-08-30T13:13:09.471Z,29.00
2022-08-30T13:16:10.447Z,28.90
2022-08-30T13:19:27.745Z,28.90
2022-08-30T13:22:30.148Z,28.90
2022-08-30T13:25:19.620Z,28.90
2022-08-30T13:28:09.772Z,28.90
2022-08-30T13:31:01.271Z,28.90
2022-08-30T13:33:55.183Z,28.90
2022-08-30T13:36:49.619Z,29.00
2022-08-30T13:39:39.017Z,29.10
2022-08-30T13:42:32.638Z,29.00
2022-08-30T13:48:33.568Z,28.90
2022-08-30T13:51:22.952Z,28.90
2022-08-30T13:54:14.601Z,28.80
2022-08-30T13:57:04.471Z,28.70
2022-08-30T13:59:54.040Z,28.70
2022-08-30T14:02:46.650Z,28.60
2022-08-30T14:05:50.090Z,28.50
2022-08-30T14:08:47.803Z,28.40
2022-08-30T14:11:40.078Z,28.30
2022-08-30T14:14:42.470Z,28.10
2022-08-30T14:17:35.532Z,28.00
2022-08-30T14:20:25.192Z,27.90
2022-08-30T14:23:17.533Z,27.80
2022-08-30T14:26:14.842Z,27.80
2022-08-30T14:29:09.866Z,27.80
2022-08-30T14:32:00.544Z,27.80
2022-08-30T14:34:49.998Z,27.80
2022-08-30T14:37:40.558Z,27.80
2022-08-30T14:40:31.823Z,27.80
2022-08-30T14:43:21.657Z,27.70
2022-08-30T14:46:13.645Z,27.60
2022-08-30T14:49:03.129Z,27.60
2022-08-30T14:51:55.501Z,27.60
2022-08-30T14:54:44.897Z,27.50
2022-08-30T14:57:35.657Z,27.40
2022-08-30T15:00:28.135Z,27.40
2022-08-30T15:03:17.576Z,27.30
2022-08-30T15:06:08.177Z,27.20
2022-08-30T15:08:58.807Z,27.20
2022-08-30T15:11:48.721Z,27.10
2022-08-30T15:14:40.351Z,27.00
2022-08-30T15:17:29.733Z,27.00
2022-08-30T15:20:20.114Z,26.90
2022-08-30T15:23:10.183Z,26.80
2022-08-30T15:26:00.151Z,26.80
2022-08-30T15:28:49.733Z,26.70
2022-08-30T15:31:41.361Z,26.70
2022-08-30T15:34:32.208Z,26.70
2022-08-30T15:37:22.557Z,26.70
2022-08-30T15:40:12.604Z,26.70
2022-08-30T15:43:04.115Z,26.60
2022-08-30T15:45:55.744Z,26.70
2022-08-30T15:48:47.636Z,26.70
2022-08-30T15:51:41.624Z,26.70
2022-08-30T15:54:35.486Z,26.70
2022-08-30T15:57:25.653Z,26.70
2022-08-30T16:00:16.817Z,26.70
2022-08-30T16:03:06.176Z,26.70
2022-08-30T16:05:56.908Z,26.70
2022-08-30T16:08:46.838Z,26.70
2022-08-30T16:11:37.215Z,26.70
2022-08-30T16:14:27.625Z,26.70
2022-08-30T16:17:17.204Z,26.60
2022-08-30T16:20:10.035Z,26.60
2022-08-30T16:23:02.709Z,26.50
2022-08-30T16:25:52.144Z,26.50
2022-08-30T16:28:42.000Z,26.50
2022-08-30T16:31:34.941Z,26.40
2022-08-30T16:34:24.605Z,26.30
2022-08-30T16:37:16.184Z,26.30
2022-08-30T16:40:11.499Z,26.20
2022-08-30T16:43:00.954Z,26.10
2022-08-30T16:45:53.774Z,26.00
2022-08-30T16:48:45.625Z,26.00
2022-08-30T16:51:36.464Z,25.90
2022-08-30T16:54:25.910Z,25.80
2022-08-30T16:57:16.737Z,25.70
2022-08-30T17:00:08.044Z,25.50
2022-08-30T17:03:03.028Z,25.40
2022-08-30T17:05:53.378Z,25.30
2022-08-30T17:08:46.824Z,25.20
2022-08-30T17:11:40.230Z,25.00
2022-08-30T17:14:31.290Z,24.90
2022-08-30T17:17:22.085Z,24.80
2022-08-30T17:20:12.798Z,24.70
2022-08-30T17:23:02.403Z,24.60
2022-08-30T17:25:52.382Z,24.60
2022-08-30T17:28:42.511Z,24.50
2022-08-30T17:31:35.137Z,24.50
2022-08-30T17:34:26.590Z,24.40
2022-08-30T17:37:17.980Z,24.40
2022-08-30T17:40:14.449Z,24.40
2022-08-30T17:43:04.299Z,24.30
2022-08-30T17:45:53.742Z,24.30
2022-08-30T17:48:46.430Z,24.20
2022-08-30T17:51:36.936Z,24.20
2022-08-30T17:54:27.271Z,24.20
2022-08-30T17:57:16.662Z,24.10
2022-08-30T18:00:08.815Z,24.00
2022-08-30T18:02:58.254Z,23.90
2022-08-30T18:05:49.112Z,23.90
2022-08-30T18:08:38.937Z,23.80
2022-08-30T18:11:28.445Z,23.70
2022-08-30T18:14:18.804Z,23.70
2022-08-30T18:17:09.141Z,23.60
2022-08-30T18:19:58.537Z,23.50
2022-08-30T18:22:49.366Z,23.40
2022-08-30T18:25:40.050Z,23.40
2022-08-30T18:28:30.727Z,23.30
2022-08-30T18:31:20.366Z,23.20
2022-08-30T18:34:12.206Z,23.20
2022-08-30T18:37:02.079Z,23.10
2022-08-30T18:39:53.323Z,23.10
2022-08-30T18:42:42.857Z,23.00
2022-08-30T18:45:33.465Z,22.90
2022-08-30T18:48:23.101Z,22.80
2022-08-30T18:51:20.670Z,22.80
2022-08-30T18:54:11.250Z,22.70
2022-08-30T18:57:02.080Z,22.70
2022-08-30T18:59:51.857Z,22.60
2022-08-30T19:02:43.604Z,22.50
2022-08-30T19:05:35.363Z,22.50
2022-08-30T19:08:24.913Z,22.40
2022-08-30T19:11:14.390Z,22.40
2022-08-30T19:14:07.658Z,22.40
2022-08-30T19:16:57.408Z,22.30
2022-08-30T19:19:52.173Z,22.30
2022-08-30T19:23:08.549Z,22.30
2022-08-30T19:25:53.441Z,22.20
2022-08-30T19:28:43.871Z,22.20
2022-08-30T19:31:35.470Z,22.20
2022-08-30T19:34:24.949Z,22.10
2022-08-30T19:37:17.808Z,22.10
2022-08-30T19:40:12.636Z,22.10
2022-08-30T19:43:02.161Z,22.00
2022-08-30T19:45:55.967Z,22.00
2022-08-30T19:48:46.769Z,22.00
2022-08-30T19:51:36.398Z,22.00
2022-08-30T19:54:26.198Z,22.00
2022-08-30T19:57:16.737Z,22.00
2022-08-30T20:00:09.249Z,22.00
2022-08-30T20:03:05.786Z,21.90
2022-08-30T20:05:57.574Z,21.90
2022-08-30T20:08:47.829Z,21.90
2022-08-30T20:11:42.286Z,21.90
2022-08-30T20:14:32.536Z,21.80
2022-08-30T20:17:22.072Z,21.80
2022-08-30T20:20:16.287Z,21.80
2022-08-30T20:23:11.331Z,21.70
2022-08-30T20:26:05.838Z,21.70
2022-08-30T20:28:55.362Z,21.60
2022-08-30T20:31:45.575Z,21.60
2022-08-30T20:34:35.234Z,21.50
2022-08-30T20:37:24.593Z,21.50
2022-08-30T20:40:16.769Z,21.40
2022-08-30T20:43:07.240Z,21.40
2022-08-30T20:45:57.044Z,21.30
2022-08-30T20:48:47.567Z,21.20
2022-08-30T20:51:36.959Z,21.20
2022-08-30T20:54:28.881Z,21.10
2022-08-30T20:57:24.278Z,21.10
2022-08-30T21:00:15.406Z,21.00
2022-08-30T21:03:07.770Z,20.90
2022-08-30T21:06:16.314Z,20.90
2022-08-30T21:09:06.752Z,20.80
2022-08-30T21:11:56.109Z,20.80
2022-08-30T21:14:46.948Z,20.70
2022-08-30T21:17:36.402Z,20.70
2022-08-30T21:20:30.297Z,20.60
2022-08-30T21:23:19.762Z,20.60
2022-08-30T21:26:10.658Z,20.60
2022-08-30T21:29:00.327Z,20.50
2022-08-30T21:31:51.149Z,20.50
2022-08-30T21:34:54.389Z,20.40
2022-08-30T21:37:43.732Z,20.40
2022-08-30T21:40:35.044Z,20.40
2022-08-30T21:43:24.431Z,20.30
2022-08-30T21:46:14.021Z,20.30
2022-08-30T21:49:09.828Z,20.30
2022-08-30T21:51:59.251Z,20.20
2022-08-30T21:54:48.812Z,20.20
2022-08-30T21:57:38.387Z,20.20
2022-08-30T22:00:27.995Z,20.10
2022-08-30T22:03:17.567Z,20.10
2022-08-30T22:06:08.582Z,20.10
2022-08-30T22:08:58.081Z,20.00
2022-08-30T22:11:48.130Z,20.00
2022-08-30T22:14:39.488Z,19.90
2022-08-30T22:17:28.948Z,19.90
2022-08-30T22:20:18.817Z,19.80
2022-08-30T22:23:10.208Z,19.80
2022-08-30T22:26:01.406Z,19.80
2022-08-30T22:28:51.434Z,19.70
2022-08-30T22:31:41.243Z,19.70
2022-08-30T22:34:32.209Z,19.60
2022-08-30T22:37:21.581Z,19.60
2022-08-30T22:40:12.937Z,19.60
2022-08-30T22:43:02.481Z,19.50
2022-08-30T22:45:51.954Z,19.50
2022-08-30T22:48:46.232Z,19.50
2022-08-30T22:51:36.187Z,19.40
2022-08-30T22:54:25.636Z,19.40
2022-08-30T22:57:19.393Z,19.30
2022-08-30T23:00:15.027Z,19.30
2022-08-30T23:03:05.055Z,19.30
2022-08-30T23:05:54.417Z,19.20
2022-08-30T23:08:44.082Z,19.20
2022-08-30T23:11:33.725Z,19.20
2022-08-30T23:14:24.471Z,19.20
2022-08-30T23:17:13.917Z,19.10
2022-08-30T23:20:03.862Z,19.10
2022-08-30T23:22:58.238Z,19.00
2022-08-30T23:26:04.784Z,19.00
2022-08-30T23:29:11.872Z,19.00
2022-08-30T23:32:20.284Z,18.90
2022-08-30T23:35:30.293Z,18.90
2022-08-30T23:38:37.292Z,18.90
2022-08-30T23:41:44.424Z,18.90
2022-08-30T23:44:51.429Z,18.80
2022-08-30T23:47:59.603Z,18.80
2022-08-30T23:51:06.357Z,18.80
2022-08-30T23:54:13.021Z,18.80
2022-08-30T23:57:19.992Z,18.70
